Time;durP1;ratioP1;P1;durP2;ratioP2;P2;SDS_P1;SDS_P2;PMS_P1;PMS_P2;Temp;Humidity;BMP_temperature;BMP_pressure;BME280_temperature;BME280_humidity;BME280_pressure;Samples;Min_cycle;Max_cycle;Signal;HPM_P1;HPM_P2
2022/03/01 00:02:26;;;;;;;0.50;0.40;;;4.80;99.90;;;;;;5037481;28;20200;-80
2022/03/01 00:04:53;;;;;;;0.50;0.40;;;4.90;99.90;;;;;;5038105;28;20703;-79
2022/03/01 00:07:21;;;;;;;0.50;0.40;;;5.00;99.90;;;;;;5038457;28;20195;-77
2022/03/01 00:09:48;;;;;;;0.50;0.40;;;4.90;99.90;;;;;;5037220;28;20210;-79
2022/03/01 00:12:15;;;;;;;1.08;1.08;;;4.90;99.90;;;;;;5037784;28;20191;-80
2022/03/01 00:14:42;;;;;;;0.50;0.40;;;4.90;99.90;;;;;;5040401;28;20207;-79
2022/03/01 00:17:08;;;;;;;0.50;0.40;;;4.90;99.90;;;;;;5041642;28;20199;-79
2022/03/01 00:19:35;;;;;;;0.63;0.63;;;4.90;99.90;;;;;;5040616;28;20202;-79
2022/03/01 00:22:02;;;;;;;0.50;0.40;;;5.00;99.90;;;;;;5039977;28;20203;-79
2022/03/01 00:24:30;;;;;;;0.50;0.40;;;5.00;99.90;;;;;;5041646;28;20219;-80
2022/03/01 00:26:56;;;;;;;0.50;0.40;;;4.90;99.90;;;;;;5041416;28;20246;-79
2022/03/01 00:29:23;;;;;;;0.60;0.50;;;4.90;99.90;;;;;;5040986;28;20206;-77
2022/03/01 00:31:50;;;;;;;0.60;0.60;;;4.90;99.90;;;;;;5041838;28;20611;-79
2022/03/01 00:34:16;;;;;;;0.60;0.50;;;4.90;99.90;;;;;;5040547;28;20219;-79
2022/03/01 00:36:43;;;;;;;0.50;0.40;;;4.90;99.90;;;;;;5041377;28;20265;-79
2022/03/01 00:39:10;;;;;;;0.95;0.93;;;4.90;99.90;;;;;;5039343;28;20661;-79
2022/03/01 00:41:38;;;;;;;0.50;0.40;;;4.90;99.90;;;;;;5041473;28;20226;-79
2022/03/01 00:44:05;;;;;;;0.68;0.68;;;4.80;99.90;;;;;;5041633;28;20222;-79
2022/03/01 00:46:32;;;;;;;0.50;0.40;;;4.80;99.90;;;;;;5040237;28;20198;-79
2022/03/01 00:49:00;;;;;;;0.63;0.60;;;4.80;99.90;;;;;;5039588;28;20241;-79
2022/03/01 00:51:28;;;;;;;3.15;2.05;;;4.80;99.90;;;;;;5040725;28;20200;-76
2022/03/01 00:53:55;;;;;;;0.80;0.80;;;4.80;99.90;;;;;;5041063;28;20222;-79
2022/03/01 00:56:22;;;;;;;0.50;0.50;;;4.90;99.90;;;;;;5040649;28;20218;-79
2022/03/01 00:58:50;;;;;;;0.93;0.82;;;4.80;99.90;;;;;;5040578;28;20231;-79
2022/03/01 01:01:17;;;;;;;3.33;2.20;;;4.80;99.90;;;;;;5039959;28;20199;-79
2022/03/01 01:03:44;;;;;;;0.50;0.40;;;4.80;99.90;;;;;;5040772;28;20219;-79
2022/03/01 01:06:10;;;;;;;0.50;0.40;;;4.80;99.90;;;;;;5040211;28;20199;-79
2022/03/01 01:08:37;;;;;;;1.42;1.33;;;4.70;99.90;;;;;;5039739;28;20199;-79
2022/03/01 01:11:04;;;;;;;14.98;2.15;;;4.70;99.90;;;;;;5039759;28;20198;-79
2022/03/01 01:13:31;;;;;;;0.50;0.40;;;4.70;99.90;;;;;;5040342;28;20223;-80
2022/03/01 01:15:59;;;;;;;0.50;0.40;;;4.70;99.90;;;;;;5040183;28;20226;-79
2022/03/01 01:18:26;;;;;;;0.55;0.55;;;4.70;99.90;;;;;;5040418;28;20199;-79
2022/03/01 01:20:53;;;;;;;0.50;0.40;;;4.60;99.90;;;;;;5039981;28;20199;-80
2022/03/01 01:23:20;;;;;;;0.65;0.65;;;4.60;99.90;;;;;;5041339;28;20225;-80
2022/03/01 01:25:47;;;;;;;0.50;0.40;;;4.60;99.90;;;;;;5039826;28;20194;-79
2022/03/01 01:28:13;;;;;;;0.60;0.60;;;4.60;99.90;;;;;;5040932;28;20687;-80
2022/03/01 01:30:40;;;;;;;0.50;0.50;;;4.60;99.90;;;;;;5039744;28;20226;-79
2022/03/01 01:33:08;;;;;;;1.00;1.00;;;4.50;99.90;;;;;;5040611;28;20217;-79
2022/03/01 01:35:37;;;;;;;0.50;0.40;;;4.50;99.90;;;;;;5040618;28;20214;-78
2022/03/01 01:38:05;;;;;;;5.40;1.77;;;4.60;99.90;;;;;;5039857;28;20199;-79
2022/03/01 01:40:34;;;;;;;1.40;1.25;;;4.50;99.90;;;;;;5039352;28;20195;-79
2022/03/01 01:43:01;;;;;;;4.38;2.88;;;4.50;99.90;;;;;;5040981;28;20229;-80
2022/03/01 01:45:29;;;;;;;0.50;0.40;;;4.50;99.90;;;;;;5040596;28;20222;-79
2022/03/01 01:47:58;;;;;;;0.50;0.40;;;4.40;99.90;;;;;;5040879;28;20202;-79
2022/03/01 01:50:27;;;;;;;0.50;0.40;;;4.40;99.90;;;;;;5039540;28;20265;-77
2022/03/01 01:52:55;;;;;;;0.50;0.50;;;4.40;99.90;;;;;;5041339;28;20219;-79
2022/03/01 01:55:23;;;;;;;0.50;0.50;;;4.30;99.90;;;;;;5040856;28;20269;-79
2022/03/01 01:57:50;;;;;;;1.50;1.40;;;4.30;99.90;;;;;;5039702;28;20662;-80
2022/03/01 02:00:18;;;;;;;0.50;0.40;;;4.20;99.90;;;;;;5040074;28;20199;-79
2022/03/01 02:02:45;;;;;;;0.50;0.40;;;4.20;99.90;;;;;;5040947;28;20242;-79
2022/03/01 02:05:13;;;;;;;0.50;0.40;;;4.20;99.90;;;;;;5040277;28;20241;-79
2022/03/01 02:07:46;;;;;;;0.50;0.40;;;4.20;99.90;;;;;;5044949;28;20198;-79
2022/03/01 02:10:14;;;;;;;0.50;0.40;;;4.20;99.90;;;;;;5046370;28;20183;-78
2022/03/01 02:12:40;;;;;;;0.50;0.50;;;4.10;99.90;;;;;;5047633;28;20225;-79
2022/03/01 02:15:08;;;;;;;0.50;0.40;;;4.10;99.90;;;;;;5045329;28;20198;-79
2022/03/01 02:17:35;;;;;;;0.50;0.40;;;4.20;99.90;;;;;;5044393;28;20209;-80
2022/03/01 02:20:12;;;;;;;0.50;0.40;;;4.10;99.90;;;;;;5044332;28;20252;-79
2022/03/01 02:22:38;;;;;;;0.50;0.40;;;4.10;99.90;;;;;;5046858;28;20222;-79
2022/03/01 02:25:06;;;;;;;0.60;0.40;;;4.10;99.90;;;;;;5047282;28;20593;-79
2022/03/01 02:27:33;;;;;;;0.50;0.40;;;4.20;99.90;;;;;;5046696;28;20230;-79
2022/03/01 02:30:00;;;;;;;0.50;0.40;;;4.10;99.90;;;;;;5044494;28;20210;-79
2022/03/01 02:32:26;;;;;;;0.82;0.82;;;4.00;99.90;;;;;;5043191;28;20668;-78
2022/03/01 02:34:53;;;;;;;0.50;0.40;;;4.10;99.90;;;;;;5042927;28;20198;-80
2022/03/01 02:37:21;;;;;;;0.50;0.40;;;4.00;99.90;;;;;;5043103;28;20696;-76
2022/03/01 02:39:48;;;;;;;0.50;0.50;;;3.90;99.90;;;;;;5041913;28;20202;-79
2022/03/01 02:42:15;;;;;;;0.60;0.60;;;3.90;99.90;;;;;;5044192;28;20252;-78
2022/03/01 02:44:41;;;;;;;0.50;0.40;;;3.90;99.90;;;;;;5044935;28;20198;-78
2022/03/01 02:47:08;;;;;;;5.28;1.50;;;4.00;99.90;;;;;;5045174;28;20680;-78
2022/03/01 02:49:35;;;;;;;1.05;1.05;;;4.10;99.90;;;;;;5048475;28;20198;-79
2022/03/01 02:52:02;;;;;;;0.50;0.40;;;4.10;99.90;;;;;;5047012;28;20199;-79
2022/03/01 02:54:31;;;;;;;0.50;0.40;;;4.30;99.90;;;;;;5048355;28;20218;-79
2022/03/01 02:57:00;;;;;;;0.50;0.40;;;4.20;99.90;;;;;;5045708;28;20213;-78
2022/03/01 02:59:27;;;;;;;0.50;0.40;;;4.20;99.90;;;;;;5040557;28;20198;-78
2022/03/01 03:01:54;;;;;;;0.50;0.40;;;4.10;99.90;;;;;;5043558;28;20198;-78
2022/03/01 03:04:21;;;;;;;0.60;0.55;;;4.10;99.90;;;;;;5046570;28;20226;-79
2022/03/01 03:06:47;;;;;;;21.40;9.70;;;4.00;99.90;;;;;;5045728;28;20221;-79
2022/03/01 03:09:14;;;;;;;0.50;0.40;;;4.00;99.90;;;;;;5043210;28;20224;-79
2022/03/01 03:11:42;;;;;;;4.82;3.85;;;4.00;99.90;;;;;;5044237;28;20198;-79
2022/03/01 03:14:09;;;;;;;0.50;0.40;;;4.10;99.90;;;;;;5041475;28;20231;-79
2022/03/01 03:16:36;;;;;;;1.17;1.17;;;4.10;99.90;;;;;;5040387;28;20632;-79
2022/03/01 03:19:03;;;;;;;6.03;5.55;;;4.10;99.90;;;;;;5037747;28;20213;-79
2022/03/01 03:21:30;;;;;;;0.98;0.98;;;4.10;99.90;;;;;;5039890;28;20257;-78
2022/03/01 03:23:56;;;;;;;0.98;0.95;;;4.10;99.90;;;;;;5040124;28;20245;-79
2022/03/01 03:26:23;;;;;;;0.50;0.50;;;4.20;99.90;;;;;;5040012;28;20200;-79
2022/03/01 03:28:51;;;;;;;0.50;0.50;;;4.30;99.90;;;;;;5039782;28;20198;-77
2022/03/01 03:31:18;;;;;;;2.35;2.25;;;4.30;99.90;;;;;;5038831;28;20235;-79
2022/03/01 03:33:45;;;;;;;5.35;2.83;;;4.40;99.90;;;;;;5038820;28;20245;-79
2022/03/01 03:36:12;;;;;;;0.50;0.40;;;4.40;99.90;;;;;;5038557;28;20237;-79
2022/03/01 03:38:38;;;;;;;1.08;1.05;;;4.40;99.90;;;;;;5037682;28;20198;-79
2022/03/01 03:41:05;;;;;;;0.50;0.40;;;4.50;99.90;;;;;;5038603;28;20195;-79
2022/03/01 03:43:32;;;;;;;0.50;0.40;;;4.50;99.90;;;;;;5038529;28;20223;-79
2022/03/01 03:45:59;;;;;;;0.50;0.40;;;4.50;99.90;;;;;;5040399;28;20198;-79
2022/03/01 03:48:26;;;;;;;1.05;1.05;;;4.40;99.90;;;;;;5039512;28;20195;-80
2022/03/01 03:50:53;;;;;;;0.50;0.40;;;4.40;99.90;;;;;;5037996;28;20289;-79
2022/03/01 03:53:20;;;;;;;0.63;0.63;;;4.40;99.90;;;;;;5039549;28;20215;-79
2022/03/01 03:55:46;;;;;;;0.60;0.60;;;4.50;99.90;;;;;;5037762;28;20218;-79
2022/03/01 03:58:13;;;;;;;2.35;2.15;;;4.50;99.90;;;;;;5038045;28;20224;-79
2022/03/01 04:00:40;;;;;;;0.98;0.98;;;4.50;99.90;;;;;;5036822;28;20302;-79
2022/03/01 04:03:08;;;;;;;1.30;0.80;;;4.50;99.90;;;;;;5038481;28;20276;-79
2022/03/01 04:05:35;;;;;;;0.50;0.40;;;4.50;99.90;;;;;;5037485;28;20265;-79
2022/03/01 04:08:02;;;;;;;0.70;0.68;;;4.50;99.90;;;;;;5038250;28;20684;-80
2022/03/01 04:10:29;;;;;;;0.60;0.60;;;4.50;99.90;;;;;;5037001;28;20608;-79
2022/03/01 04:12:56;;;;;;;0.50;0.50;;;4.60;99.90;;;;;;5037473;28;20293;-79
2022/03/01 04:15:22;;;;;;;2.25;1.63;;;4.60;99.90;;;;;;5039003;28;20205;-78
2022/03/01 04:17:49;;;;;;;0.60;0.60;;;4.50;99.90;;;;;;5039017;28;20300;-78
2022/03/01 04:20:18;;;;;;;0.50;0.50;;;4.60;99.90;;;;;;5037270;28;20199;-79
2022/03/01 04:22:45;;;;;;;0.50;0.40;;;4.50;99.90;;;;;;5037589;28;20269;-78
2022/03/01 04:25:12;;;;;;;0.50;0.40;;;4.50;99.90;;;;;;5038976;28;20293;-78
2022/03/01 04:27:39;;;;;;;0.50;0.40;;;4.50;99.90;;;;;;5036961;28;20195;-79
2022/03/01 04:30:07;;;;;;;0.50;0.40;;;4.50;99.90;;;;;;5036411;28;20192;-78
2022/03/01 04:32:34;;;;;;;1.20;1.15;;;4.50;99.90;;;;;;5037000;28;20246;-78
2022/03/01 04:35:01;;;;;;;0.60;0.60;;;4.50;99.90;;;;;;5037675;28;20206;-77
2022/03/01 04:37:29;;;;;;;0.50;0.40;;;4.50;99.90;;;;;;5040246;28;20215;-78
2022/03/01 04:39:56;;;;;;;2.88;1.75;;;4.50;99.90;;;;;;5047992;28;20206;-78
2022/03/01 04:42:23;;;;;;;0.82;0.82;;;4.50;99.90;;;;;;5047497;28;20226;-78
2022/03/01 04:44:49;;;;;;;1.70;1.30;;;4.40;99.90;;;;;;5045709;28;20195;-79
2022/03/01 04:47:16;;;;;;;7.25;6.68;;;4.40;99.90;;;;;;5044917;28;20191;-78
2022/03/01 04:49:43;;;;;;;0.50;0.50;;;4.40;99.90;;;;;;5044038;28;20206;-77
2022/03/01 04:52:10;;;;;;;0.82;0.82;;;4.40;99.90;;;;;;5044970;28;20199;-77
2022/03/01 04:54:38;;;;;;;1.75;1.65;;;4.30;99.90;;;;;;5046381;28;20257;-78
2022/03/01 04:57:04;;;;;;;0.50;0.40;;;4.40;99.90;;;;;;5044741;28;20238;-77
2022/03/01 04:59:31;;;;;;;0.50;0.40;;;4.40;99.90;;;;;;5047039;28;20220;-78
2022/03/01 05:01:58;;;;;;;7.32;1.08;;;4.40;99.90;;;;;;5055705;28;20195;-77
2022/03/01 05:04:25;;;;;;;2.45;1.98;;;4.40;99.90;;;;;;5049940;28;20310;-78
2022/03/01 05:06:52;;;;;;;0.85;0.82;;;4.40;99.90;;;;;;5052850;28;20187;-78
2022/03/01 05:09:21;;;;;;;1.60;1.55;;;4.40;99.90;;;;;;5049003;28;20557;-78
2022/03/01 05:11:49;;;;;;;0.60;0.50;;;4.20;99.90;;;;;;5041086;28;20206;-78
2022/03/01 05:14:17;;;;;;;1.77;1.67;;;4.30;99.90;;;;;;5049038;28;20488;-79
2022/03/01 05:16:44;;;;;;;0.80;0.80;;;4.30;99.90;;;;;;5048360;28;20222;-79
2022/03/01 05:19:11;;;;;;;0.60;0.50;;;4.30;99.90;;;;;;5046163;28;20206;-78
2022/03/01 05:21:37;;;;;;;0.93;0.90;;;4.40;99.90;;;;;;5038166;28;20623;-77
2022/03/01 05:24:05;;;;;;;0.50;0.40;;;4.40;99.90;;;;;;5037042;28;20269;-77
2022/03/01 05:26:32;;;;;;;0.65;0.65;;;4.40;99.90;;;;;;5036104;28;20205;-77
2022/03/01 05:29:00;;;;;;;1.35;1.25;;;4.40;99.90;;;;;;5037929;28;20210;-77
2022/03/01 05:31:28;;;;;;;2.97;2.88;;;4.40;99.90;;;;;;5037197;28;20287;-78
2022/03/01 05:33:54;;;;;;;1.40;1.30;;;4.50;99.90;;;;;;5039145;28;20214;-79
2022/03/01 05:36:21;;;;;;;0.50;0.40;;;4.50;99.90;;;;;;5040903;28;20225;-78
2022/03/01 05:38:48;;;;;;;0.50;0.40;;;4.50;99.90;;;;;;5039405;28;20238;-77
2022/03/01 05:41:15;;;;;;;1.13;0.90;;;4.50;99.90;;;;;;5040520;28;20689;-77
2022/03/01 05:43:42;;;;;;;0.63;0.57;;;4.50;99.90;;;;;;5034692;28;20218;-79
2022/03/01 05:46:10;;;;;;;1.50;1.20;;;4.50;99.90;;;;;;5037711;28;20198;-77
2022/03/01 05:48:37;;;;;;;0.60;0.50;;;4.50;99.90;;;;;;5038598;28;20198;-77
2022/03/01 05:51:06;;;;;;;2.55;1.23;;;4.50;99.90;;;;;;5035513;28;20697;-76
2022/03/01 05:53:33;;;;;;;0.88;0.88;;;4.50;99.90;;;;;;5034808;28;20236;-77
2022/03/01 05:55:59;;;;;;;1.55;1.00;;;4.50;99.90;;;;;;5035951;28;20542;-77
2022/03/01 05:58:26;;;;;;;1.83;1.05;;;4.50;99.90;;;;;;5035650;28;20223;-77
2022/03/01 06:00:53;;;;;;;2.15;2.05;;;4.50;99.90;;;;;;5034849;28;20677;-78
2022/03/01 06:03:21;;;;;;;0.50;0.40;;;4.50;99.90;;;;;;5036565;28;20215;-77
2022/03/01 06:05:47;;;;;;;2.38;1.80;;;4.50;99.90;;;;;;5035638;28;20198;-77
2022/03/01 06:08:14;;;;;;;2.35;2.13;;;4.50;99.90;;;;;;5040088;28;20194;-79
2022/03/01 06:10:41;;;;;;;1.65;1.02;;;4.50;99.90;;;;;;5037362;28;20251;-78
2022/03/01 06:13:07;;;;;;;0.63;0.63;;;4.50;99.90;;;;;;5038096;28;20230;-77
2022/03/01 06:15:34;;;;;;;1.15;1.15;;;4.50;99.90;;;;;;5037821;28;20201;-78
2022/03/01 06:18:01;;;;;;;1.15;0.95;;;4.50;99.90;;;;;;5037706;28;20215;-78
2022/03/01 06:20:29;;;;;;;0.70;0.60;;;4.50;99.90;;;;;;5039931;28;20199;-78
2022/03/01 06:22:56;;;;;;;1.17;1.05;;;4.50;99.90;;;;;;5038938;28;20272;-79
2022/03/01 06:25:23;;;;;;;2.83;2.63;;;4.50;99.90;;;;;;5038378;28;20196;-79
2022/03/01 06:27:52;;;;;;;2.97;2.65;;;4.50;99.90;;;;;;5038217;28;20199;-79
2022/03/01 06:30:18;;;;;;;1.95;1.10;;;4.50;99.90;;;;;;5038034;28;20229;-79
2022/03/01 06:32:45;;;;;;;1.13;0.63;;;4.50;99.90;;;;;;5035728;28;20219;-79
2022/03/01 06:35:12;;;;;;;2.65;1.05;;;4.50;99.90;;;;;;5035588;28;20202;-80
2022/03/01 06:37:40;;;;;;;0.88;0.88;;;4.50;99.90;;;;;;5035425;28;20216;-80
2022/03/01 06:40:08;;;;;;;2.55;1.50;;;4.50;99.90;;;;;;5036960;28;20246;-80
2022/03/01 06:42:35;;;;;;;3.08;2.88;;;4.50;99.90;;;;;;5037391;28;20209;-80
2022/03/01 06:45:02;;;;;;;1.65;0.93;;;4.50;99.90;;;;;;5037834;28;20202;-80
2022/03/01 06:47:29;;;;;;;1.77;1.38;;;4.60;99.90;;;;;;5037694;28;20669;-80
2022/03/01 06:49:55;;;;;;;0.95;0.85;;;4.60;99.90;;;;;;5037474;28;20897;-80
2022/03/01 06:52:22;;;;;;;5.13;2.70;;;4.60;99.90;;;;;;5037263;28;20203;-81
2022/03/01 06:54:50;;;;;;;1.67;1.58;;;4.70;99.90;;;;;;5037144;28;20202;-81
2022/03/01 06:57:17;;;;;;;1.08;1.08;;;4.70;99.90;;;;;;5038809;28;20234;-81
2022/03/01 06:59:43;;;;;;;3.63;2.65;;;4.80;99.90;;;;;;5036803;28;20290;-80
2022/03/01 07:02:10;;;;;;;2.30;2.13;;;4.90;99.90;;;;;;5037108;28;20206;-80
2022/03/01 07:04:37;;;;;;;0.50;0.40;;;4.80;99.90;;;;;;5036393;28;20218;-80
2022/03/01 07:07:05;;;;;;;3.83;1.45;;;4.80;99.90;;;;;;5037421;28;20226;-79
2022/03/01 07:09:32;;;;;;;4.03;1.77;;;4.80;99.90;;;;;;5036363;28;20203;-82
2022/03/01 07:12:00;;;;;;;1.70;0.73;;;4.80;99.90;;;;;;5037307;28;20253;-81
2022/03/01 07:14:26;;;;;;;1.98;1.30;;;4.70;99.90;;;;;;5038594;28;20238;-78
2022/03/01 07:16:53;;;;;;;1.50;1.40;;;4.80;99.90;;;;;;5042668;28;20203;-79
2022/03/01 07:19:20;;;;;;;8.13;0.80;;;4.80;99.90;;;;;;5036947;28;20253;-81
2022/03/01 07:21:47;;;;;;;1.08;1.08;;;4.80;99.90;;;;;;5036120;28;20199;-81
2022/03/01 07:24:14;;;;;;;0.60;0.60;;;4.90;99.90;;;;;;5036803;28;20223;-81
2022/03/01 07:26:40;;;;;;;0.57;0.47;;;4.90;99.90;;;;;;5036016;28;20206;-81
2022/03/01 07:29:08;;;;;;;5.10;1.15;;;5.00;99.90;;;;;;5035431;28;20207;-80
2022/03/01 07:31:35;;;;;;;1.40;1.30;;;5.10;99.90;;;;;;5035570;28;20199;-80
2022/03/01 07:34:03;;;;;;;6.78;2.47;;;5.20;99.90;;;;;;5036657;28;20225;-81
2022/03/01 07:36:30;;;;;;;3.60;3.35;;;5.20;99.90;;;;;;5035841;28;20264;-81
2022/03/01 07:38:56;;;;;;;3.53;3.22;;;5.30;99.90;;;;;;5033983;28;20218;-81
2022/03/01 07:41:23;;;;;;;3.97;2.40;;;5.50;99.90;;;;;;5038045;28;20226;-81
2022/03/01 07:43:50;;;;;;;1.30;0.68;;;5.60;99.90;;;;;;5036457;28;20219;-81
2022/03/01 07:46:18;;;;;;;6.53;1.90;;;5.70;99.90;;;;;;5037124;28;20202;-81
2022/03/01 07:48:45;;;;;;;3.05;1.20;;;5.80;98.90;;;;;;5036218;28;20199;-78
2022/03/01 07:51:12;;;;;;;3.58;3.38;;;6.10;97.50;;;;;;5036121;28;20677;-81
2022/03/01 07:53:39;;;;;;;1.25;1.15;;;6.40;95.50;;;;;;5035671;28;20223;-81
2022/03/01 07:56:06;;;;;;;1.70;1.35;;;6.70;93.40;;;;;;5036268;28;20201;-81
2022/03/01 07:58:33;;;;;;;1.23;1.13;;;7.10;92.20;;;;;;5036063;28;20215;-81
2022/03/01 08:00:59;;;;;;;4.25;2.75;;;7.40;90.40;;;;;;5035717;28;20265;-80
2022/03/01 08:03:28;;;;;;;2.17;1.77;;;7.90;87.00;;;;;;5036225;28;20596;-81
2022/03/01 08:05:54;;;;;;;0.50;0.40;;;8.00;82.90;;;;;;5035486;28;20278;-81
2022/03/01 08:08:21;;;;;;;3.72;3.42;;;7.70;84.00;;;;;;5037009;28;20193;-83
2022/03/01 08:10:49;;;;;;;1.08;0.90;;;7.30;82.60;;;;;;5035156;28;20197;-79
2022/03/01 08:13:16;;;;;;;2.75;1.67;;;7.10;83.50;;;;;;5036496;28;20227;-80
2022/03/01 08:15:43;;;;;;;1.25;0.80;;;6.80;84.10;;;;;;5035581;28;20195;-81
2022/03/01 08:18:09;;;;;;;5.32;2.72;;;6.80;84.70;;;;;;5035783;28;20216;-81
2022/03/01 08:20:37;;;;;;;2.15;1.95;;;6.80;84.50;;;;;;5034742;28;20620;-78
2022/03/01 08:23:04;;;;;;;2.17;2.05;;;6.80;84.20;;;;;;5035634;28;20277;-81
2022/03/01 08:25:31;;;;;;;4.63;2.40;;;6.90;83.30;;;;;;5035708;28;20195;-81
2022/03/01 08:27:58;;;;;;;0.85;0.85;;;7.10;82.70;;;;;;5034858;28;20658;-81
2022/03/01 08:30:25;;;;;;;1.90;1.80;;;7.50;81.10;;;;;;5033616;28;20600;-81
2022/03/01 08:32:52;;;;;;;2.08;1.60;;;8.10;79.70;;;;;;5035551;28;20275;-81
2022/03/01 08:35:19;;;;;;;1.05;1.05;;;8.70;76.20;;;;;;5037555;28;20193;-81
2022/03/01 08:37:48;;;;;;;3.47;3.10;;;9.20;74.40;;;;;;5039086;28;20220;-82
2022/03/01 08:40:18;;;;;;;6.45;1.63;;;10.00;69.70;;;;;;5036221;28;20209;-81
2022/03/01 08:42:45;;;;;;;1.55;0.75;;;10.30;66.40;;;;;;5038773;28;20273;-81
2022/03/01 08:45:12;;;;;;;0.50;0.40;;;10.60;64.40;;;;;;5038851;28;20205;-80
2022/03/01 08:47:39;;;;;;;0.50;0.40;;;10.90;62.90;;;;;;5038856;28;20205;-81
2022/03/01 08:50:07;;;;;;;1.77;1.67;;;11.40;62.60;;;;;;5038081;28;20194;-79
2022/03/01 08:52:34;;;;;;;0.50;0.40;;;11.80;60.20;;;;;;5038856;28;20546;-81
2022/03/01 08:55:02;;;;;;;0.60;0.50;;;12.30;60.00;;;;;;5038957;28;20206;-80
2022/03/01 08:57:28;;;;;;;0.82;0.77;;;12.40;57.90;;;;;;5037676;28;20203;-81
2022/03/01 08:59:55;;;;;;;0.55;0.47;;;12.40;56.70;;;;;;5038561;28;20199;-82
2022/03/01 09:02:22;;;;;;;20.33;2.13;;;12.10;56.10;;;;;;5039455;28;20199;-82
2022/03/01 09:04:48;;;;;;;1.05;1.05;;;11.40;56.70;;;;;;5039208;28;20251;-82
2022/03/01 09:07:15;;;;;;;0.95;0.95;;;11.10;57.20;;;;;;5039176;28;20678;-82
2022/03/01 09:09:42;;;;;;;0.50;0.40;;;11.20;57.70;;;;;;5039259;28;20199;-80
2022/03/01 09:12:10;;;;;;;0.70;0.52;;;11.20;57.40;;;;;;5039823;28;20200;-81
2022/03/01 09:14:37;;;;;;;1.10;1.10;;;10.90;56.90;;;;;;5039719;28;20232;-80
2022/03/01 09:17:04;;;;;;;2.60;1.30;;;10.80;56.90;;;;;;5039324;28;20205;-83
2022/03/01 09:19:30;;;;;;;1.75;1.65;;;10.50;57.30;;;;;;5038102;28;20621;-82
2022/03/01 09:21:57;;;;;;;1.25;1.25;;;10.30;57.30;;;;;;5039184;28;20198;-82
2022/03/01 09:24:24;;;;;;;2.55;1.48;;;9.90;58.00;;;;;;5040214;28;20229;-81
2022/03/01 09:26:50;;;;;;;1.42;0.70;;;9.50;58.40;;;;;;5040065;28;20288;-81
2022/03/01 09:29:18;;;;;;;1.42;1.40;;;9.40;59.10;;;;;;5038045;28;20201;-80
2022/03/01 09:31:45;;;;;;;0.70;0.50;;;9.00;59.90;;;;;;5039031;28;20584;-81
2022/03/01 09:34:12;;;;;;;4.63;1.33;;;9.00;60.70;;;;;;5039697;28;20220;-82
2022/03/01 09:36:38;;;;;;;1.55;1.52;;;9.00;60.60;;;;;;5039931;28;20556;-81
2022/03/01 09:39:05;;;;;;;1.60;1.02;;;8.90;61.10;;;;;;5038013;28;20222;-76
2022/03/01 09:41:37;;;;;;;0.85;0.85;;;9.00;61.10;;;;;;5038675;28;20193;-81
2022/03/01 09:44:04;;;;;;;0.70;0.70;;;9.10;60.10;;;;;;5045840;28;20448;-81
2022/03/01 09:46:32;;;;;;;2.67;2.45;;;9.10;60.40;;;;;;5040691;28;20192;-82
2022/03/01 09:48:59;;;;;;;3.05;1.92;;;9.00;60.40;;;;;;5038304;28;20216;-81
2022/03/01 09:51:27;;;;;;;1.67;1.25;;;8.70;60.70;;;;;;5039114;28;20199;-81
2022/03/01 09:53:55;;;;;;;1.08;0.98;;;9.10;60.90;;;;;;5039071;28;20224;-83
2022/03/01 09:56:22;;;;;;;1.80;1.70;;;9.20;59.60;;;;;;5039788;28;20201;-80
2022/03/01 09:58:51;;;;;;;1.85;1.45;;;9.60;59.70;;;;;;5037998;28;20216;-82
2022/03/01 10:01:18;;;;;;;3.42;1.25;;;9.90;59.70;;;;;;5043115;28;20256;-81
2022/03/01 10:03:48;;;;;;;1.10;1.05;;;10.30;57.40;;;;;;5044497;28;20219;-80
2022/03/01 10:06:16;;;;;;;0.98;0.88;;;10.80;56.90;;;;;;5039018;28;20201;-82
2022/03/01 10:08:43;;;;;;;1.27;1.17;;;11.60;56.40;;;;;;5038625;28;20202;-82
2022/03/01 10:11:11;;;;;;;1.42;0.82;;;12.30;55.00;;;;;;5037850;28;20222;-82
2022/03/01 10:13:39;;;;;;;1.03;0.97;;;12.50;55.00;;;;;;5037266;28;20234;-80
2022/03/01 10:16:07;;;;;;;0.90;0.80;;;12.10;53.60;;;;;;5038797;28;20452;-81
2022/03/01 10:18:36;;;;;;;0.50;0.40;;;11.40;54.30;;;;;;5038029;28;20263;-81
2022/03/01 10:21:07;;;;;;;0.50;0.40;;;11.20;55.10;;;;;;5037658;28;20596;-82
2022/03/01 10:23:34;;;;;;;2.45;1.40;;;11.00;55.70;;;;;;5038186;28;20217;-82
2022/03/01 10:26:12;;;;;;;1.60;1.60;;;11.00;56.50;;;;;;5038683;28;20200;-82
2022/03/01 10:28:39;;;;;;;0.50;0.43;;;11.20;57.00;;;;;;5038252;28;20194;-80
2022/03/01 10:31:14;;;;;;;1.25;1.10;;;11.50;56.00;;;;;;5037547;28;20195;-82
2022/03/01 10:33:52;;;;;;;2.30;1.10;;;11.50;55.50;;;;;;5037705;28;20218;-82
2022/03/01 10:36:24;;;;;;;3.90;1.05;;;11.20;56.00;;;;;;5037606;28;20206;-83
2022/03/01 10:39:01;;;;;;;1.95;1.85;;;11.30;56.10;;;;;;5037726;28;20569;-81
2022/03/01 10:41:29;;;;;;;1.13;0.75;;;11.40;56.00;;;;;;5036131;28;20191;-82
2022/03/01 10:43:59;;;;;;;2.10;1.98;;;11.10;54.90;;;;;;5038104;28;20227;-82
2022/03/01 10:46:26;;;;;;;1.55;1.45;;;11.00;55.10;;;;;;5037808;28;20203;-82
2022/03/01 10:49:02;;;;;;;0.60;0.50;;;10.70;55.40;;;;;;5036702;28;20195;-82
2022/03/01 10:51:30;;;;;;;1.02;1.02;;;10.90;56.60;;;;;;5037668;28;20183;-82
2022/03/01 10:53:59;;;;;;;0.73;0.73;;;11.10;56.40;;;;;;5037041;28;20222;-82
2022/03/01 10:56:35;;;;;;;1.33;1.23;;;11.20;56.50;;;;;;5037053;28;20202;-82
2022/03/01 10:59:04;;;;;;;1.17;1.17;;;10.90;55.60;;;;;;5037041;28;20269;-83
2022/03/01 11:01:31;;;;;;;0.60;0.55;;;11.00;55.90;;;;;;5037056;28;20231;-80
2022/03/01 11:03:57;;;;;;;1.60;0.80;;;11.10;56.20;;;;;;5037891;28;20222;-83
2022/03/01 11:06:25;;;;;;;4.55;1.83;;;11.10;55.80;;;;;;5037347;28;20207;-79
2022/03/01 11:08:54;;;;;;;2.67;2.05;;;11.00;55.50;;;;;;5036500;28;20191;-82
2022/03/01 11:11:26;;;;;;;0.60;0.60;;;11.00;55.80;;;;;;5037931;28;20199;-82
2022/03/01 11:13:53;;;;;;;0.60;0.57;;;11.20;56.00;;;;;;5037932;28;20238;-83
2022/03/01 11:16:37;;;;;;;2.85;1.75;;;11.40;55.90;;;;;;5037998;28;20568;-82
2022/03/01 11:19:22;;;;;;;6.95;3.00;;;11.00;55.70;;;;;;5037484;28;20204;-82
2022/03/01 11:21:51;;;;;;;2.65;1.05;;;10.60;55.50;;;;;;5037822;28;20608;-82
2022/03/01 11:24:20;;;;;;;0.50;0.40;;;10.50;56.50;;;;;;5038216;28;20219;-82
2022/03/01 11:26:48;;;;;;;5.28;1.73;;;10.80;56.70;;;;;;5038758;28;20194;-82
2022/03/01 11:29:17;;;;;;;0.85;0.85;;;10.90;55.60;;;;;;5035614;28;20739;-83
2022/03/01 11:31:55;;;;;;;0.60;0.50;;;11.30;56.20;;;;;;5037632;28;20202;-81
2022/03/01 11:34:23;;;;;;;1.27;1.17;;;11.80;55.50;;;;;;5037565;28;20241;-81
2022/03/01 11:36:52;;;;;;;4.15;1.77;;;12.40;54.20;;;;;;5037502;28;20282;-82
2022/03/01 11:39:27;;;;;;;1.02;0.90;;;12.30;52.90;;;;;;5034496;28;20215;-82
2022/03/01 11:42:02;;;;;;;1.40;1.30;;;11.90;53.20;;;;;;5040832;28;20210;-82
2022/03/01 11:44:32;;;;;;;1.38;1.25;;;11.30;53.50;;;;;;5038416;28;20368;-82
2022/03/01 11:47:02;;;;;;;0.77;0.77;;;11.00;54.40;;;;;;5038484;28;20195;-82
2022/03/01 11:49:34;;;;;;;2.55;0.70;;;11.00;54.40;;;;;;5037550;28;20612;-79
2022/03/01 11:52:01;;;;;;;1.35;1.35;;;11.20;55.40;;;;;;5038946;28;20214;-82
2022/03/01 11:54:31;;;;;;;0.70;0.50;;;11.30;55.90;;;;;;5038502;28;20219;-82
2022/03/01 11:57:00;;;;;;;1.13;1.13;;;11.40;54.70;;;;;;5037548;28;20265;-82
2022/03/01 11:59:28;;;;;;;1.42;1.33;;;11.30;54.60;;;;;;5037800;28;20753;-81
2022/03/01 12:01:55;;;;;;;1.63;1.52;;;11.30;54.50;;;;;;5038198;28;20203;-81
2022/03/01 12:04:26;;;;;;;0.50;0.40;;;11.30;54.60;;;;;;5038988;28;20219;-79
2022/03/01 12:06:54;;;;;;;6.07;1.77;;;11.20;54.80;;;;;;5037855;28;20188;-82
2022/03/01 12:09:23;;;;;;;10.73;2.42;;;11.20;54.50;;;;;;5038955;28;20542;-81
2022/03/01 12:12:02;;;;;;;1.95;1.00;;;11.40;55.60;;;;;;5041871;28;20305;-82
2022/03/01 12:14:33;;;;;;;0.50;0.40;;;11.60;54.60;;;;;;5041140;28;20758;-82
2022/03/01 12:17:01;;;;;;;0.50;0.40;;;11.70;54.20;;;;;;5040977;28;20187;-81
2022/03/01 12:19:31;;;;;;;15.60;14.03;;;11.90;54.40;;;;;;5039756;28;20240;-81
2022/03/01 12:21:59;;;;;;;2.17;2.07;;;11.90;55.60;;;;;;5041050;28;20422;-82
2022/03/01 12:24:27;;;;;;;0.50;0.40;;;12.30;55.30;;;;;;5040732;28;20465;-82
2022/03/01 12:26:57;;;;;;;1.58;1.50;;;12.60;54.40;;;;;;5039558;28;20449;-82
2022/03/01 12:29:25;;;;;;;0.50;0.40;;;12.40;54.50;;;;;;5039374;28;20195;-82
2022/03/01 12:31:57;;;;;;;0.50;0.40;;;12.60;56.10;;;;;;5040527;28;20442;-82
2022/03/01 12:34:26;;;;;;;1.83;0.93;;;12.40;54.40;;;;;;5040355;28;20828;-82
2022/03/01 12:36:55;;;;;;;1.27;1.17;;;12.60;55.30;;;;;;5040358;28;20472;-81
2022/03/01 12:39:23;;;;;;;0.50;0.50;;;12.50;54.40;;;;;;5037723;28;20481;-81
2022/03/01 12:41:50;;;;;;;5.22;1.63;;;12.30;54.50;;;;;;5039452;28;20199;-80
2022/03/01 12:44:20;;;;;;;2.60;2.45;;;12.10;54.40;;;;;;5039298;28;20211;-81
2022/03/01 12:46:47;;;;;;;2.45;1.60;;;11.30;53.60;;;;;;5089620;22;20234;-77
2022/03/01 12:49:16;;;;;;;2.90;1.45;;;11.10;54.50;;;;;;5029917;28;20194;-78
2022/03/01 12:51:44;;;;;;;0.60;0.47;;;11.10;55.20;;;;;;5035913;28;20216;-77
2022/03/01 12:54:12;;;;;;;6.07;2.17;;;11.30;55.80;;;;;;5035700;28;20195;-77
2022/03/01 12:56:40;;;;;;;12.85;2.22;;;11.50;55.10;;;;;;5036344;28;20373;-75